sensor_id;sensor_type;location;lat;lon;timestamp;P1;durP1;ratioP1;P2;durP2;ratioP2
73315;SDS011;61545;53.726;-0.444;2023-02-26T00:01:31;10.9;;;1.7;;
73315;SDS011;61545;53.726;-0.444;2023-02-26T00:06:31;6.9;;;1.2;;
73315;SDS011;61545;53.726;-0.444;2023-02-26T00:11:30;6.7;;;1.3;;
73315;SDS011;61545;53.726;-0.444;2023-02-26T00:16:30;9.2;;;1.8;;
73315;SDS011;61545;53.726;-0.444;2023-02-26T00:21:30;9.2;;;1.8;;
73315;SDS011;61545;53.726;-0.444;2023-02-26T00:26:29;9.5;;;1.6;;
73315;SDS011;61545;53.726;-0.444;2023-02-26T00:31:30;6.7;;;1.2;;
73315;SDS011;61545;53.726;-0.444;2023-02-26T00:36:36;6.6;;;1.2;;
73315;SDS011;61545;53.726;-0.444;2023-02-26T00:41:30;11.2;;;1.6;;
73315;SDS011;61545;53.726;-0.444;2023-02-26T00:46:35;7.7;;;1.4;;
73315;SDS011;61545;53.726;-0.444;2023-02-26T00:51:30;7.7;;;1.4;;
73315;SDS011;61545;53.726;-0.444;2023-02-26T00:56:29;18.6;;;1.5;;
73315;SDS011;61545;53.726;-0.444;2023-02-26T01:01:29;9.5;;;1.6;;
73315;SDS011;61545;53.726;-0.444;2023-02-26T01:06:32;9.9;;;1.4;;
73315;SDS011;61545;53.726;-0.444;2023-02-26T01:11:30;11.9;;;1.6;;
73315;SDS011;61545;53.726;-0.444;2023-02-26T01:16:32;5.7;;;1.5;;
73315;SDS011;61545;53.726;-0.444;2023-02-26T01:21:32;5.7;;;1.5;;
73315;SDS011;61545;53.726;-0.444;2023-02-26T01:26:29;9.2;;;1.3;;
73315;SDS011;61545;53.726;-0.444;2023-02-26T01:31:34;9.2;;;1.6;;
73315;SDS011;61545;53.726;-0.444;2023-02-26T01:36:31;11.7;;;1.3;;
73315;SDS011;61545;53.726;-0.444;2023-02-26T01:41:32;10.2;;;1.6;;
73315;SDS011;61545;53.726;-0.444;2023-02-26T01:46:33;12.0;;;1.8;;
73315;SDS011;61545;53.726;-0.444;2023-02-26T01:51:48;12.0;;;1.8;;
73315;SDS011;61545;53.726;-0.444;2023-02-26T01:56:29;11.1;;;1.7;;
73315;SDS011;61545;53.726;-0.444;2023-02-26T02:01:29;20.0;;;4;;
73315;SDS011;61545;53.726;-0.444;2023-02-26T02:06:29;21.6;;;6.6;;
73315;SDS011;61545;53.726;-0.444;2023-02-26T02:11:29;18.1;;;4.8;;
73315;SDS011;61545;53.726;-0.444;2023-02-26T02:16:33;15.9;;;4.6;;
73315;SDS011;61545;53.726;-0.444;2023-02-26T02:21:47;15.9;;;4.6;;
73315;SDS011;61545;53.726;-0.444;2023-02-26T02:26:43;9.2;;;2.7;;
73315;SDS011;61545;53.726;-0.444;2023-02-26T02:31:31;9.2;;;2.1;;
73315;SDS011;61545;53.726;-0.444;2023-02-26T02:36:33;9.3;;;1.6;;
73315;SDS011;61545;53.726;-0.444;2023-02-26T02:41:31;8.9;;;1.9;;
73315;SDS011;61545;53.726;-0.444;2023-02-26T02:46:31;9.9;;;1.7;;
73315;SDS011;61545;53.726;-0.444;2023-02-26T02:51:31;9.9;;;1.7;;
73315;SDS011;61545;53.726;-0.444;2023-02-26T02:56:32;10.1;;;2.1;;
73315;SDS011;61545;53.726;-0.444;2023-02-26T03:01:29;13.8;;;2;;
73315;SDS011;61545;53.726;-0.444;2023-02-26T03:06:29;11.9;;;1.8;;
73315;SDS011;61545;53.726;-0.444;2023-02-26T03:11:29;11.9;;;2;;
73315;SDS011;61545;53.726;-0.444;2023-02-26T03:16:39;10.2;;;1.6;;
73315;SDS011;61545;53.726;-0.444;2023-02-26T03:21:32;10.2;;;1.6;;
73315;SDS011;61545;53.726;-0.444;2023-02-26T03:26:31;10.0;;;1.5;;
73315;SDS011;61545;53.726;-0.444;2023-02-26T03:31:30;10.4;;;1.5;;
73315;SDS011;61545;53.726;-0.444;2023-02-26T03:36:31;10.0;;;1.6;;
73315;SDS011;61545;53.726;-0.444;2023-02-26T03:41:32;10.4;;;1.5;;
73315;SDS011;61545;53.726;-0.444;2023-02-26T03:46:31;13.7;;;2.2;;
73315;SDS011;61545;53.726;-0.444;2023-02-26T03:51:29;13.7;;;2.2;;
73315;SDS011;61545;53.726;-0.444;2023-02-26T03:56:32;14.1;;;1.6;;
73315;SDS011;61545;53.726;-0.444;2023-02-26T04:01:31;16.1;;;2.8;;
73315;SDS011;61545;53.726;-0.444;2023-02-26T04:06:29;22.2;;;2.7;;
73315;SDS011;61545;53.726;-0.444;2023-02-26T04:11:29;19.3;;;2.7;;
73315;SDS011;61545;53.726;-0.444;2023-02-26T04:16:29;18.9;;;2.5;;
73315;SDS011;61545;53.726;-0.444;2023-02-26T04:21:29;18.9;;;2.5;;
73315;SDS011;61545;53.726;-0.444;2023-02-26T04:26:29;8.7;;;1.7;;
73315;SDS011;61545;53.726;-0.444;2023-02-26T04:31:29;13.9;;;2.4;;
73315;SDS011;61545;53.726;-0.444;2023-02-26T04:36:29;9.0;;;2;;
73315;SDS011;61545;53.726;-0.444;2023-02-26T04:41:29;9.4;;;1.7;;
73315;SDS011;61545;53.726;-0.444;2023-02-26T04:46:30;7.0;;;0.9;;
73315;SDS011;61545;53.726;-0.444;2023-02-26T04:51:29;7.0;;;0.9;;
73315;SDS011;61545;53.726;-0.444;2023-02-26T04:56:29;7.6;;;1.4;;
73315;SDS011;61545;53.726;-0.444;2023-02-26T05:01:30;9.8;;;1.5;;
73315;SDS011;61545;53.726;-0.444;2023-02-26T05:06:29;8.3;;;1.3;;
73315;SDS011;61545;53.726;-0.444;2023-02-26T05:11:29;9.4;;;1.4;;
73315;SDS011;61545;53.726;-0.444;2023-02-26T05:16:29;9.5;;;2.3;;
73315;SDS011;61545;53.726;-0.444;2023-02-26T05:21:30;9.5;;;2.3;;
73315;SDS011;61545;53.726;-0.444;2023-02-26T05:26:30;7.4;;;1.4;;
73315;SDS011;61545;53.726;-0.444;2023-02-26T05:31:29;14.8;;;1.6;;
73315;SDS011;61545;53.726;-0.444;2023-02-26T05:36:29;6.1;;;1.4;;
73315;SDS011;61545;53.726;-0.444;2023-02-26T05:41:29;10.6;;;1.5;;
73315;SDS011;61545;53.726;-0.444;2023-02-26T05:46:29;8.7;;;1.7;;
73315;SDS011;61545;53.726;-0.444;2023-02-26T05:51:29;8.7;;;1.7;;
73315;SDS011;61545;53.726;-0.444;2023-02-26T05:56:29;13.0;;;1.7;;
73315;SDS011;61545;53.726;-0.444;2023-02-26T06:01:30;12.8;;;1.7;;
73315;SDS011;61545;53.726;-0.444;2023-02-26T06:06:30;11.7;;;2.1;;
73315;SDS011;61545;53.726;-0.444;2023-02-26T06:11:30;10.5;;;1.8;;
73315;SDS011;61545;53.726;-0.444;2023-02-26T06:16:29;11.2;;;1.7;;
73315;SDS011;61545;53.726;-0.444;2023-02-26T06:21:29;11.2;;;1.7;;
73315;SDS011;61545;53.726;-0.444;2023-02-26T06:26:29;12.3;;;1.5;;
73315;SDS011;61545;53.726;-0.444;2023-02-26T06:31:29;12.1;;;1.7;;
73315;SDS011;61545;53.726;-0.444;2023-02-26T06:36:29;12.8;;;1.7;;
73315;SDS011;61545;53.726;-0.444;2023-02-26T06:41:29;9.1;;;1.4;;
73315;SDS011;61545;53.726;-0.444;2023-02-26T06:46:29;11.4;;;1.8;;
73315;SDS011;61545;53.726;-0.444;2023-02-26T06:51:29;11.4;;;1.8;;
73315;SDS011;61545;53.726;-0.444;2023-02-26T06:56:29;6.4;;;1.3;;
73315;SDS011;61545;53.726;-0.444;2023-02-26T07:01:29;14.2;;;2;;
73315;SDS011;61545;53.726;-0.444;2023-02-26T07:06:29;14.7;;;2.3;;
73315;SDS011;61545;53.726;-0.444;2023-02-26T07:11:29;10.2;;;1.6;;
73315;SDS011;61545;53.726;-0.444;2023-02-26T07:16:29;13.7;;;2;;
73315;SDS011;61545;53.726;-0.444;2023-02-26T07:21:30;13.7;;;2;;
73315;SDS011;61545;53.726;-0.444;2023-02-26T07:26:29;8.0;;;1.9;;
73315;SDS011;61545;53.726;-0.444;2023-02-26T07:31:29;14.0;;;2.2;;
73315;SDS011;61545;53.726;-0.444;2023-02-26T07:36:30;12.0;;;2.7;;
73315;SDS011;61545;53.726;-0.444;2023-02-26T07:41:29;8.4;;;1.6;;
73315;SDS011;61545;53.726;-0.444;2023-02-26T07:46:29;8.7;;;1.3;;
73315;SDS011;61545;53.726;-0.444;2023-02-26T07:51:29;8.7;;;1.3;;
73315;SDS011;61545;53.726;-0.444;2023-02-26T07:56:29;11.7;;;1.6;;
73315;SDS011;61545;53.726;-0.444;2023-02-26T08:01:30;10.3;;;2;;
73315;SDS011;61545;53.726;-0.444;2023-02-26T08:06:30;15.8;;;3.6;;
73315;SDS011;61545;53.726;-0.444;2023-02-26T08:11:29;13.9;;;2.3;;
73315;SDS011;61545;53.726;-0.444;2023-02-26T08:16:29;12.1;;;1.7;;
73315;SDS011;61545;53.726;-0.444;2023-02-26T08:21:30;12.1;;;1.7;;
73315;SDS011;61545;53.726;-0.444;2023-02-26T08:26:29;12.4;;;1.7;;
73315;SDS011;61545;53.726;-0.444;2023-02-26T08:31:29;7.9;;;1.7;;
73315;SDS011;61545;53.726;-0.444;2023-02-26T08:36:30;6.1;;;1.4;;
73315;SDS011;61545;53.726;-0.444;2023-02-26T08:41:29;8.2;;;1.6;;
73315;SDS011;61545;53.726;-0.444;2023-02-26T08:46:29;10.4;;;1.8;;
73315;SDS011;61545;53.726;-0.444;2023-02-26T08:51:29;10.4;;;1.8;;
73315;SDS011;61545;53.726;-0.444;2023-02-26T08:56:29;12.2;;;1.7;;
73315;SDS011;61545;53.726;-0.444;2023-02-26T09:01:30;6.8;;;1.3;;
73315;SDS011;61545;53.726;-0.444;2023-02-26T09:06:30;9.1;;;1.4;;
73315;SDS011;61545;53.726;-0.444;2023-02-26T09:11:29;7.5;;;1.5;;
73315;SDS011;61545;53.726;-0.444;2023-02-26T09:16:30;15.3;;;2.9;;
73315;SDS011;61545;53.726;-0.444;2023-02-26T09:21:30;15.3;;;2.9;;
73315;SDS011;61545;53.726;-0.444;2023-02-26T09:26:30;5.0;;;1.3;;
73315;SDS011;61545;53.726;-0.444;2023-02-26T09:31:29;6.6;;;1.6;;
73315;SDS011;61545;53.726;-0.444;2023-02-26T09:36:29;13.8;;;1.7;;
73315;SDS011;61545;53.726;-0.444;2023-02-26T09:41:31;12.1;;;1.7;;
73315;SDS011;61545;53.726;-0.444;2023-02-26T09:46:35;7.1;;;1.5;;
73315;SDS011;61545;53.726;-0.444;2023-02-26T09:51:29;7.1;;;1.5;;
73315;SDS011;61545;53.726;-0.444;2023-02-26T09:56:32;14.9;;;3.5;;
73315;SDS011;61545;53.726;-0.444;2023-02-26T10:01:31;11.9;;;2.1;;
73315;SDS011;61545;53.726;-0.444;2023-02-26T10:06:30;9.5;;;1.4;;
73315;SDS011;61545;53.726;-0.444;2023-02-26T10:11:32;6.6;;;2.4;;
73315;SDS011;61545;53.726;-0.444;2023-02-26T10:16:32;9.6;;;1.4;;
73315;SDS011;61545;53.726;-0.444;2023-02-26T10:21:32;9.6;;;1.4;;
73315;SDS011;61545;53.726;-0.444;2023-02-26T10:26:32;9.9;;;1.5;;
73315;SDS011;61545;53.726;-0.444;2023-02-26T10:31:31;4.9;;;1.2;;
73315;SDS011;61545;53.726;-0.444;2023-02-26T10:36:34;14.3;;;2.1;;
73315;SDS011;61545;53.726;-0.444;2023-02-26T10:41:31;12.4;;;1.9;;
73315;SDS011;61545;53.726;-0.444;2023-02-26T10:46:34;9.5;;;1.8;;
73315;SDS011;61545;53.726;-0.444;2023-02-26T10:51:31;9.5;;;1.8;;
73315;SDS011;61545;53.726;-0.444;2023-02-26T10:56:31;8.8;;;1.3;;
73315;SDS011;61545;53.726;-0.444;2023-02-26T11:01:30;8.7;;;1.4;;
73315;SDS011;61545;53.726;-0.444;2023-02-26T11:06:30;8.1;;;1.3;;
73315;SDS011;61545;53.726;-0.444;2023-02-26T11:11:48;7.8;;;1.3;;
73315;SDS011;61545;53.726;-0.444;2023-02-26T11:16:29;8.0;;;1.3;;
73315;SDS011;61545;53.726;-0.444;2023-02-26T11:21:34;8.0;;;1.3;;
73315;SDS011;61545;53.726;-0.444;2023-02-26T11:26:31;11.7;;;2;;
73315;SDS011;61545;53.726;-0.444;2023-02-26T11:31:30;7.4;;;1.3;;
73315;SDS011;61545;53.726;-0.444;2023-02-26T11:36:31;11.7;;;1.4;;
73315;SDS011;61545;53.726;-0.444;2023-02-26T11:41:30;6.3;;;1.3;;
73315;SDS011;61545;53.726;-0.444;2023-02-26T11:46:29;9.3;;;1.6;;
73315;SDS011;61545;53.726;-0.444;2023-02-26T11:51:29;9.3;;;1.6;;
73315;SDS011;61545;53.726;-0.444;2023-02-26T11:56:31;11.0;;;1.5;;
73315;SDS011;61545;53.726;-0.444;2023-02-26T12:01:29;8.5;;;1.4;;
73315;SDS011;61545;53.726;-0.444;2023-02-26T12:06:30;7.2;;;1.4;;
73315;SDS011;61545;53.726;-0.444;2023-02-26T12:11:38;7.2;;;1.5;;
73315;SDS011;61545;53.726;-0.444;2023-02-26T12:16:33;5.6;;;1;;
73315;SDS011;61545;53.726;-0.444;2023-02-26T12:21:44;5.6;;;1;;
73315;SDS011;61545;53.726;-0.444;2023-02-26T12:26:30;8.2;;;1.2;;
73315;SDS011;61545;53.726;-0.444;2023-02-26T12:32:10;6.5;;;1.4;;
73315;SDS011;61545;53.726;-0.444;2023-02-26T12:36:37;10.4;;;1.3;;
73315;SDS011;61545;53.726;-0.444;2023-02-26T12:41:37;6.7;;;1.7;;
73315;SDS011;61545;53.726;-0.444;2023-02-26T12:46:37;8.4;;;1.3;;
73315;SDS011;61545;53.726;-0.444;2023-02-26T12:51:38;8.4;;;1.3;;
73315;SDS011;61545;53.726;-0.444;2023-02-26T12:56:44;5.7;;;1.5;;
73315;SDS011;61545;53.726;-0.444;2023-02-26T13:01:43;7.4;;;0.9;;
73315;SDS011;61545;53.726;-0.444;2023-02-26T13:06:44;6.2;;;1.5;;
73315;SDS011;61545;53.726;-0.444;2023-02-26T13:11:40;7.3;;;1.7;;
73315;SDS011;61545;53.726;-0.444;2023-02-26T13:16:36;7.7;;;1.2;;
73315;SDS011;61545;53.726;-0.444;2023-02-26T13:21:32;7.7;;;1.2;;
73315;SDS011;61545;53.726;-0.444;2023-02-26T13:26:30;6.0;;;1.5;;
73315;SDS011;61545;53.726;-0.444;2023-02-26T13:31:31;6.7;;;1.1;;
73315;SDS011;61545;53.726;-0.444;2023-02-26T13:36:30;8.1;;;2;;
73315;SDS011;61545;53.726;-0.444;2023-02-26T13:41:34;4.8;;;1.2;;
73315;SDS011;61545;53.726;-0.444;2023-02-26T13:46:35;7.4;;;1.7;;
73315;SDS011;61545;53.726;-0.444;2023-02-26T13:51:33;7.4;;;1.7;;
73315;SDS011;61545;53.726;-0.444;2023-02-26T13:57:40;5.0;;;1;;
73315;SDS011;61545;53.726;-0.444;2023-02-26T14:01:31;5.9;;;1.1;;
73315;SDS011;61545;53.726;-0.444;2023-02-26T14:06:39;4.9;;;1.4;;
73315;SDS011;61545;53.726;-0.444;2023-02-26T14:11:37;4.7;;;1.3;;
73315;SDS011;61545;53.726;-0.444;2023-02-26T14:16:32;4.6;;;1.1;;
73315;SDS011;61545;53.726;-0.444;2023-02-26T14:21:36;4.6;;;1.1;;
73315;SDS011;61545;53.726;-0.444;2023-02-26T14:26:31;4.3;;;1;;
73315;SDS011;61545;53.726;-0.444;2023-02-26T14:31:49;8.8;;;1.5;;
73315;SDS011;61545;53.726;-0.444;2023-02-26T14:36:34;12.1;;;3.6;;
73315;SDS011;61545;53.726;-0.444;2023-02-26T14:41:31;9.9;;;2.5;;
73315;SDS011;61545;53.726;-0.444;2023-02-26T14:46:30;6.0;;;1.4;;
73315;SDS011;61545;53.726;-0.444;2023-02-26T14:51:35;6.0;;;1.4;;
73315;SDS011;61545;53.726;-0.444;2023-02-26T14:56:35;6.4;;;1.2;;
73315;SDS011;61545;53.726;-0.444;2023-02-26T15:01:39;10.7;;;1.5;;
73315;SDS011;61545;53.726;-0.444;2023-02-26T15:06:40;6.9;;;1.7;;
73315;SDS011;61545;53.726;-0.444;2023-02-26T15:11:38;7.4;;;1.6;;
73315;SDS011;61545;53.726;-0.444;2023-02-26T15:16:35;4.0;;;1.7;;
73315;SDS011;61545;53.726;-0.444;2023-02-26T15:21:36;4.0;;;1.7;;
73315;SDS011;61545;53.726;-0.444;2023-02-26T15:26:31;6.4;;;1.8;;
73315;SDS011;61545;53.726;-0.444;2023-02-26T15:31:31;6.3;;;1.4;;
73315;SDS011;61545;53.726;-0.444;2023-02-26T15:36:30;4.9;;;1.2;;
73315;SDS011;61545;53.726;-0.444;2023-02-26T15:41:30;6.0;;;1.2;;
73315;SDS011;61545;53.726;-0.444;2023-02-26T15:46:31;21.5;;;2.5;;
73315;SDS011;61545;53.726;-0.444;2023-02-26T15:51:30;21.5;;;2.5;;
73315;SDS011;61545;53.726;-0.444;2023-02-26T15:56:31;12.6;;;3.1;;
73315;SDS011;61545;53.726;-0.444;2023-02-26T16:01:30;7.0;;;1.3;;
73315;SDS011;61545;53.726;-0.444;2023-02-26T16:06:33;8.7;;;1.6;;
73315;SDS011;61545;53.726;-0.444;2023-02-26T16:11:31;4.5;;;1.5;;
73315;SDS011;61545;53.726;-0.444;2023-02-26T16:16:35;6.8;;;1.9;;
73315;SDS011;61545;53.726;-0.444;2023-02-26T16:21:31;6.8;;;1.9;;
73315;SDS011;61545;53.726;-0.444;2023-02-26T16:26:31;9.4;;;1.9;;
73315;SDS011;61545;53.726;-0.444;2023-02-26T16:31:30;9.2;;;1.6;;
73315;SDS011;61545;53.726;-0.444;2023-02-26T16:36:31;7.0;;;1.6;;
73315;SDS011;61545;53.726;-0.444;2023-02-26T16:41:31;8.0;;;1.9;;
73315;SDS011;61545;53.726;-0.444;2023-02-26T16:46:33;10.3;;;2.7;;
73315;SDS011;61545;53.726;-0.444;2023-02-26T16:51:31;10.3;;;2.7;;
73315;SDS011;61545;53.726;-0.444;2023-02-26T16:56:32;10.7;;;2.1;;
73315;SDS011;61545;53.726;-0.444;2023-02-26T17:01:32;6.2;;;1.9;;
73315;SDS011;61545;53.726;-0.444;2023-02-26T17:06:30;6.3;;;1.6;;
73315;SDS011;61545;53.726;-0.444;2023-02-26T17:11:31;8.7;;;2;;
73315;SDS011;61545;53.726;-0.444;2023-02-26T17:16:29;6.6;;;1.4;;
73315;SDS011;61545;53.726;-0.444;2023-02-26T17:21:30;6.6;;;1.4;;
73315;SDS011;61545;53.726;-0.444;2023-02-26T17:26:30;10.1;;;1.5;;
73315;SDS011;61545;53.726;-0.444;2023-02-26T17:31:30;9.2;;;2.3;;
73315;SDS011;61545;53.726;-0.444;2023-02-26T17:36:30;12.9;;;3;;
73315;SDS011;61545;53.726;-0.444;2023-02-26T17:41:30;8.8;;;3;;
73315;SDS011;61545;53.726;-0.444;2023-02-26T17:46:30;12.5;;;4.4;;
73315;SDS011;61545;53.726;-0.444;2023-02-26T17:51:30;12.5;;;4.4;;
73315;SDS011;61545;53.726;-0.444;2023-02-26T17:56:31;8.3;;;3.5;;
73315;SDS011;61545;53.726;-0.444;2023-02-26T18:01:30;14.9;;;3.5;;
73315;SDS011;61545;53.726;-0.444;2023-02-26T18:06:31;13.0;;;3.5;;
73315;SDS011;61545;53.726;-0.444;2023-02-26T18:11:30;7.9;;;2.9;;
73315;SDS011;61545;53.726;-0.444;2023-02-26T18:16:31;10.9;;;2.6;;
73315;SDS011;61545;53.726;-0.444;2023-02-26T18:21:30;10.9;;;2.6;;
73315;SDS011;61545;53.726;-0.444;2023-02-26T18:26:31;10.5;;;2.7;;
73315;SDS011;61545;53.726;-0.444;2023-02-26T18:31:30;10.9;;;3.2;;
73315;SDS011;61545;53.726;-0.444;2023-02-26T18:36:31;20.1;;;5.6;;
73315;SDS011;61545;53.726;-0.444;2023-02-26T18:41:30;23.9;;;7.2;;
73315;SDS011;61545;53.726;-0.444;2023-02-26T18:46:30;21.1;;;7.6;;
73315;SDS011;61545;53.726;-0.444;2023-02-26T18:51:30;21.1;;;7.6;;
73315;SDS011;61545;53.726;-0.444;2023-02-26T18:56:30;19.3;;;6.4;;
73315;SDS011;61545;53.726;-0.444;2023-02-26T19:01:30;15.1;;;4.5;;
73315;SDS011;61545;53.726;-0.444;2023-02-26T19:06:30;11.1;;;3;;
73315;SDS011;61545;53.726;-0.444;2023-02-26T19:11:30;10.8;;;3.4;;
73315;SDS011;61545;53.726;-0.444;2023-02-26T19:16:30;10.6;;;4.1;;
73315;SDS011;61545;53.726;-0.444;2023-02-26T19:21:30;10.6;;;4.1;;
73315;SDS011;61545;53.726;-0.444;2023-02-26T19:26:30;8.2;;;3.5;;
73315;SDS011;61545;53.726;-0.444;2023-02-26T19:31:30;11.9;;;3.4;;
73315;SDS011;61545;53.726;-0.444;2023-02-26T19:36:30;10.2;;;3.4;;
73315;SDS011;61545;53.726;-0.444;2023-02-26T19:41:30;14.8;;;3.3;;
73315;SDS011;61545;53.726;-0.444;2023-02-26T19:46:30;8.4;;;2.6;;
73315;SDS011;61545;53.726;-0.444;2023-02-26T19:51:30;8.4;;;2.6;;
73315;SDS011;61545;53.726;-0.444;2023-02-26T19:56:30;12.4;;;3.2;;
73315;SDS011;61545;53.726;-0.444;2023-02-26T20:01:30;8.4;;;2.8;;
73315;SDS011;61545;53.726;-0.444;2023-02-26T20:06:30;9.1;;;2.7;;
73315;SDS011;61545;53.726;-0.444;2023-02-26T20:11:30;9.8;;;2.6;;
73315;SDS011;61545;53.726;-0.444;2023-02-26T20:16:30;9.3;;;2.4;;
73315;SDS011;61545;53.726;-0.444;2023-02-26T20:21:30;9.3;;;2.4;;
73315;SDS011;61545;53.726;-0.444;2023-02-26T20:26:30;9.1;;;2.5;;
73315;SDS011;61545;53.726;-0.444;2023-02-26T20:31:30;19.1;;;3.1;;
73315;SDS011;61545;53.726;-0.444;2023-02-26T20:36:30;17.9;;;3.4;;
73315;SDS011;61545;53.726;-0.444;2023-02-26T20:41:30;15.1;;;3.3;;
73315;SDS011;61545;53.726;-0.444;2023-02-26T20:46:30;15.6;;;3.8;;
73315;SDS011;61545;53.726;-0.444;2023-02-26T20:51:30;15.6;;;3.8;;
73315;SDS011;61545;53.726;-0.444;2023-02-26T20:56:30;10.5;;;2.7;;
73315;SDS011;61545;53.726;-0.444;2023-02-26T21:01:30;9.4;;;2.7;;
73315;SDS011;61545;53.726;-0.444;2023-02-26T21:06:30;11.6;;;3.1;;
73315;SDS011;61545;53.726;-0.444;2023-02-26T21:11:30;19.1;;;5;;
73315;SDS011;61545;53.726;-0.444;2023-02-26T21:16:30;12.1;;;3.2;;
73315;SDS011;61545;53.726;-0.444;2023-02-26T21:21:30;12.1;;;3.2;;
73315;SDS011;61545;53.726;-0.444;2023-02-26T21:26:30;12.3;;;2.8;;
73315;SDS011;61545;53.726;-0.444;2023-02-26T21:31:30;17.4;;;5.6;;
73315;SDS011;61545;53.726;-0.444;2023-02-26T21:36:30;22.1;;;7.7;;
73315;SDS011;61545;53.726;-0.444;2023-02-26T21:41:30;20.4;;;6.9;;
73315;SDS011;61545;53.726;-0.444;2023-02-26T21:46:30;15.3;;;5.7;;
73315;SDS011;61545;53.726;-0.444;2023-02-26T21:51:30;15.3;;;5.7;;
73315;SDS011;61545;53.726;-0.444;2023-02-26T21:56:30;7.4;;;3.6;;
73315;SDS011;61545;53.726;-0.444;2023-02-26T22:01:30;7.4;;;3;;
73315;SDS011;61545;53.726;-0.444;2023-02-26T22:06:30;4.9;;;1.8;;
73315;SDS011;61545;53.726;-0.444;2023-02-26T22:11:30;6.7;;;1.8;;
73315;SDS011;61545;53.726;-0.444;2023-02-26T22:16:30;5.6;;;1.7;;
73315;SDS011;61545;53.726;-0.444;2023-02-26T22:21:30;5.6;;;1.7;;
73315;SDS011;61545;53.726;-0.444;2023-02-26T22:26:30;7.4;;;1.7;;
73315;SDS011;61545;53.726;-0.444;2023-02-26T22:31:30;7.7;;;1.8;;
73315;SDS011;61545;53.726;-0.444;2023-02-26T22:36:30;4.4;;;1.4;;
73315;SDS011;61545;53.726;-0.444;2023-02-26T22:41:30;6.7;;;1.3;;
73315;SDS011;61545;53.726;-0.444;2023-02-26T22:46:30;5.9;;;1.5;;
73315;SDS011;61545;53.726;-0.444;2023-02-26T22:51:30;5.9;;;1.5;;
73315;SDS011;61545;53.726;-0.444;2023-02-26T22:56:30;3.5;;;1.2;;
73315;SDS011;61545;53.726;-0.444;2023-02-26T23:01:30;4.4;;;1.1;;
73315;SDS011;61545;53.726;-0.444;2023-02-26T23:06:30;7.5;;;1.1;;
73315;SDS011;61545;53.726;-0.444;2023-02-26T23:11:30;4.2;;;1.1;;
73315;SDS011;61545;53.726;-0.444;2023-02-26T23:16:30;3.6;;;0.9;;
73315;SDS011;61545;53.726;-0.444;2023-02-26T23:21:30;3.6;;;0.9;;
73315;SDS011;61545;53.726;-0.444;2023-02-26T23:26:30;6.6;;;1;;
73315;SDS011;61545;53.726;-0.444;2023-02-26T23:31:30;7.3;;;1.6;;
73315;SDS011;61545;53.726;-0.444;2023-02-26T23:36:30;4.8;;;1.3;;
73315;SDS011;61545;53.726;-0.444;2023-02-26T23:41:30;5.8;;;1.2;;
73315;SDS011;61545;53.726;-0.444;2023-02-26T23:46:30;5.0;;;0.9;;
73315;SDS011;61545;53.726;-0.444;2023-02-26T23:51:30;5.0;;;0.9;;
73315;SDS011;61545;53.726;-0.444;2023-02-26T23:56:30;3.1;;;1;;
